Time;durP1;ratioP1;P1;durP2;ratioP2;P2;SDS_P1;SDS_P2;PMS_P1;PMS_P2;Temp;Humidity;BMP_temperature;BMP_pressure;BME280_temperature;BME280_humidity;BME280_pressure;Samples;Min_cycle;Max_cycle;Signal;HPM_P1;HPM_P2
2022/09/20 06:33:13;;;;;;;3.20;1.63;;;;;;;;;;10677384;27;20019;-84
2022/09/20 06:50:35;;;;;;;3.45;2.33;;;;;;;;;;10301987;28;20102;-82
2022/09/20 06:56:13;;;;;;;3.25;1.63;;;;;;;;;;10301057;28;20078;-83
2022/09/20 07:01:20;;;;;;;2.88;1.55;;;;;;;;;;10283362;28;20054;-85
2022/09/20 07:06:21;;;;;;;2.72;1.35;;;;;;;;;;10472300;27;20046;-84
2022/09/20 07:11:23;;;;;;;3.13;1.60;;;;;;;;;;10651854;27;20027;-83
2022/09/20 07:16:36;;;;;;;4.88;1.92;;;;;;;;;;10658421;27;20019;-84
2022/09/20 07:21:37;;;;;;;7.45;1.80;;;;;;;;;;10679396;27;20027;-83
2022/09/20 07:26:38;;;;;;;3.80;1.58;;;;;;;;;;10634874;27;20374;-84
2022/09/20 07:31:39;;;;;;;4.28;2.20;;;;;;;;;;10651818;27;20030;-83
2022/09/20 07:42:23;;;;;;;5.45;2.33;;;;;;;;;;10624457;27;20095;-84
2022/09/20 07:47:26;;;;;;;6.60;3.30;;;;;;;;;;10621737;27;20114;-83
2022/09/20 07:52:31;;;;;;;5.65;2.30;;;;;;;;;;10626384;27;20027;-84
2022/09/20 07:57:41;;;;;;;6.82;2.60;;;;;;;;;;10620110;27;20440;-85
2022/09/20 08:02:44;;;;;;;4.82;2.70;;;;;;;;;;10641174;27;20054;-83
2022/09/20 08:07:49;;;;;;;7.15;2.50;;;;;;;;;;10623379;27;20027;-82
2022/09/20 08:19:17;;;;;;;6.75;2.35;;;;;;;;;;10639667;27;20019;-82
2022/09/20 08:24:55;;;;;;;6.72;2.85;;;;;;;;;;10615100;27;20102;-85
2022/09/20 08:30:06;;;;;;;7.32;3.00;;;;;;;;;;10615589;27;20025;-86
2022/09/20 08:35:07;;;;;;;13.52;9.00;;;;;;;;;;10614285;27;20035;-85
2022/09/20 08:40:14;;;;;;;6.18;2.78;;;;;;;;;;10623581;27;20459;-85
2022/09/20 08:45:18;;;;;;;5.47;3.22;;;;;;;;;;10622755;27;20102;-85
2022/09/20 08:50:21;;;;;;;4.75;2.75;;;;;;;;;;10643948;27;20023;-85
2022/09/20 08:55:43;;;;;;;4.22;2.17;;;;;;;;;;10641011;27;20030;-83
2022/09/20 09:00:55;;;;;;;4.85;2.60;;;;;;;;;;10617201;27;20092;-86
2022/09/20 09:05:57;;;;;;;5.20;2.20;;;;;;;;;;10615188;27;20034;-85
2022/09/20 09:11:06;;;;;;;15.75;10.32;;;;;;;;;;10620527;27;20023;-85
2022/09/20 09:16:15;;;;;;;6.05;2.67;;;;;;;;;;10623762;27;20023;-85
2022/09/20 09:21:21;;;;;;;5.40;2.72;;;;;;;;;;10644009;27;20027;-84
2022/09/20 09:26:23;;;;;;;5.28;2.75;;;;;;;;;;10626033;27;20027;-85
2022/09/20 09:31:25;;;;;;;3.65;2.40;;;;;;;;;;10639694;27;20102;-84
2022/09/20 09:36:26;;;;;;;7.78;4.45;;;;;;;;;;10622880;27;20057;-84
2022/09/20 09:41:34;;;;;;;4.72;2.20;;;;;;;;;;10621595;27;20549;-85
2022/09/20 09:46:39;;;;;;;4.60;2.20;;;;;;;;;;10637381;27;20027;-86
2022/09/20 09:51:42;;;;;;;5.32;3.08;;;;;;;;;;10618903;27;20486;-86
2022/09/20 09:56:46;;;;;;;3.70;1.77;;;;;;;;;;10636344;28;20538;-85
2022/09/20 10:02:07;;;;;;;4.90;1.98;;;;;;;;;;10644775;27;20029;-83
2022/09/20 10:07:34;;;;;;;5.13;1.90;;;;;;;;;;10673270;27;20096;-85
2022/09/20 10:12:42;;;;;;;4.60;1.80;;;;;;;;;;10642507;27;20047;-86
2022/09/20 10:17:53;;;;;;;4.65;2.55;;;;;;;;;;10617255;28;20027;-86
2022/09/20 10:23:00;;;;;;;3.72;1.52;;;;;;;;;;10621890;28;20051;-85
2022/09/20 10:28:09;;;;;;;2.70;1.55;;;;;;;;;;10617714;28;20126;-85
2022/09/20 10:33:30;;;;;;;3.03;1.40;;;;;;;;;;10635771;28;20096;-86
2022/09/20 10:38:53;;;;;;;3.60;1.63;;;;;;;;;;10616985;28;20088;-87
2022/09/20 10:44:12;;;;;;;6.68;2.53;;;;;;;;;;10621705;27;20023;-86
2022/09/20 10:49:32;;;;;;;4.00;2.13;;;;;;;;;;10629652;27;20107;-83
2022/09/20 10:54:52;;;;;;;4.03;1.50;;;;;;;;;;10642464;27;20084;-84
2022/09/20 11:00:09;;;;;;;3.47;1.35;;;;;;;;;;10640866;27;20030;-85
2022/09/20 11:05:18;;;;;;;5.88;3.00;;;;;;;;;;10622050;27;20075;-85
2022/09/20 11:10:50;;;;;;;4.68;3.00;;;;;;;;;;10621939;27;20019;-85
2022/09/20 11:15:54;;;;;;;4.18;1.63;;;;;;;;;;10541119;27;20038;-83
2022/09/20 11:21:22;;;;;;;3.45;2.00;;;;;;;;;;10625203;27;20036;-84
2022/09/20 11:26:26;;;;;;;2.70;1.48;;;;;;;;;;10606238;27;20027;-85
2022/09/20 11:31:47;;;;;;;2.80;1.38;;;;;;;;;;10636820;27;20050;-84
2022/09/20 11:36:53;;;;;;;3.28;1.58;;;;;;;;;;10626109;27;20022;-84
2022/09/20 11:42:15;;;;;;;3.45;1.65;;;;;;;;;;10638961;27;20050;-85
2022/09/20 11:47:34;;;;;;;2.88;1.38;;;;;;;;;;10621349;27;20023;-84
2022/09/20 11:52:46;;;;;;;2.90;1.30;;;;;;;;;;10620120;27;20059;-85
2022/09/20 11:57:58;;;;;;;3.90;1.30;;;;;;;;;;10618930;27;20095;-85
2022/09/20 12:03:05;;;;;;;2.38;0.98;;;;;;;;;;10618810;27;20115;-85
2022/09/20 12:08:24;;;;;;;2.50;1.30;;;;;;;;;;10624662;27;20070;-85
2022/09/20 12:13:26;;;;;;;5.68;2.38;;;;;;;;;;10637822;27;20482;-85
2022/09/20 12:18:34;;;;;;;2.45;1.25;;;;;;;;;;10619140;27;20031;-85
2022/09/20 12:23:35;;;;;;;3.25;1.60;;;;;;;;;;10643955;27;20020;-86
2022/09/20 12:28:38;;;;;;;2.97;1.20;;;;;;;;;;10621924;27;20037;-85
2022/09/20 12:33:58;;;;;;;3.40;1.20;;;;;;;;;;10624342;27;20031;-84
2022/09/20 12:39:02;;;;;;;3.00;1.20;;;;;;;;;;10623380;27;20035;-85
2022/09/20 12:54:53;;;;;;;3.50;1.10;;;;;;;;;;10555619;28;20036;-84
2022/09/20 12:59:57;;;;;;;2.20;0.82;;;;;;;;;;10565012;28;20050;-84
2022/09/20 13:05:05;;;;;;;3.38;0.90;;;;;;;;;;10557070;28;20128;-86
2022/09/20 13:10:22;;;;;;;2.70;1.00;;;;;;;;;;10561170;28;20037;-85
2022/09/20 13:15:23;;;;;;;2.78;1.00;;;;;;;;;;10549643;28;20114;-84
2022/09/20 13:20:29;;;;;;;9.13;1.55;;;;;;;;;;10550638;28;20020;-84
2022/09/20 13:25:32;;;;;;;2.60;1.25;;;;;;;;;;10548423;28;20070;-84
2022/09/20 13:30:34;;;;;;;1.48;0.80;;;;;;;;;;10549595;28;20020;-82
2022/09/20 13:35:35;;;;;;;2.58;1.10;;;;;;;;;;10550747;28;20028;-83
2022/09/20 13:40:43;;;;;;;3.42;1.25;;;;;;;;;;10550614;28;20100;-83
2022/09/20 13:45:44;;;;;;;2.50;0.95;;;;;;;;;;10569295;28;20034;-82
2022/09/20 13:51:03;;;;;;;3.13;1.20;;;;;;;;;;10586523;28;20032;-83
2022/09/20 13:56:09;;;;;;;2.88;1.20;;;;;;;;;;10579575;28;20083;-85
2022/09/20 14:01:30;;;;;;;1.38;0.82;;;;;;;;;;10565929;28;20057;-83
2022/09/20 14:06:31;;;;;;;3.80;1.08;;;;;;;;;;10553935;28;20028;-85
2022/09/20 14:11:32;;;;;;;4.05;1.20;;;;;;;;;;10555416;28;20016;-85
2022/09/20 14:16:48;;;;;;;1.92;1.00;;;;;;;;;;10564014;28;20020;-84
2022/09/20 14:21:49;;;;;;;3.35;1.02;;;;;;;;;;10596701;28;20015;-84
2022/09/20 14:27:01;;;;;;;2.85;1.30;;;;;;;;;;10582808;28;20085;-85
2022/09/20 14:32:25;;;;;;;2.42;1.20;;;;;;;;;;10560403;28;20431;-84
2022/09/20 14:37:42;;;;;;;5.68;1.25;;;;;;;;;;10556867;28;20067;-85
2022/09/20 14:42:45;;;;;;;4.13;2.78;;;;;;;;;;10571744;28;20028;-82
2022/09/20 14:48:07;;;;;;;2.92;1.00;;;;;;;;;;10576952;28;20047;-79
2022/09/20 14:53:21;;;;;;;4.88;1.15;;;;;;;;;;10570610;28;20051;-83
2022/09/20 14:58:24;;;;;;;4.10;1.08;;;;;;;;;;10573241;28;20032;-84
2022/09/20 15:09:11;;;;;;;6.30;1.13;;;;;;;;;;10578630;28;20032;-84
2022/09/20 15:20:48;;;;;;;;;;;;;;;;;;;;;
2022/09/20 15:26:22;;;;;;;2.17;0.98;;;;;;;;;;10452163;28;20040;-83
2022/09/20 15:31:57;;;;;;;2.75;1.08;;;;;;;;;;10369632;28;20088;-81
2022/09/20 16:00:27;;;;;;;3.13;1.80;;;;;;;;;;10455482;28;20046;-80
2022/09/20 16:22:32;;;;;;;1.90;1.27;;;;;;;;;;10277928;29;20028;-86
2022/09/20 16:49:59;;;;;;;2.42;1.10;;;;;;;;;;10611969;28;20040;-87
2022/09/20 16:55:25;;;;;;;4.35;1.50;;;;;;;;;;10594073;28;20054;-86
